createdAt,value
2018-07-06T00:01:59.768Z,2.73
2018-07-06T00:04:32.705Z,3.80
2018-07-06T00:07:05.623Z,2.50
2018-07-06T00:09:38.513Z,2.20
2018-07-06T00:12:11.394Z,2.10
2018-07-06T00:14:44.357Z,2.40
2018-07-06T00:17:17.306Z,2.30
2018-07-06T00:19:50.210Z,2.23
2018-07-06T00:22:23.041Z,3.37
2018-07-06T00:24:55.943Z,2.37
2018-07-06T00:27:28.783Z,2.57
2018-07-06T00:30:01.743Z,2.60
2018-07-06T00:32:34.665Z,2.43
2018-07-06T00:35:07.679Z,2.63
2018-07-06T00:37:40.543Z,2.30
2018-07-06T00:40:13.620Z,2.73
2018-07-06T00:42:46.513Z,2.33
2018-07-06T00:45:19.432Z,2.30
2018-07-06T00:47:52.253Z,2.13
2018-07-06T00:50:25.199Z,2.10
2018-07-06T00:52:58.111Z,3.47
2018-07-06T00:55:31.055Z,2.60
2018-07-06T00:58:03.925Z,3.00
2018-07-06T01:00:36.771Z,2.60
2018-07-06T01:03:10.189Z,2.50
2018-07-06T01:05:43.172Z,2.57
2018-07-06T01:08:16.258Z,2.73
2018-07-06T01:10:49.166Z,2.63
2018-07-06T01:13:22.110Z,2.47
2018-07-06T01:15:54.990Z,2.40
2018-07-06T01:18:27.869Z,4.17
2018-07-06T01:21:00.736Z,2.90
2018-07-06T01:23:33.606Z,2.73
2018-07-06T01:26:06.568Z,2.57
2018-07-06T01:28:39.489Z,2.60
2018-07-06T01:31:12.390Z,2.70
2018-07-06T01:33:45.413Z,2.40
2018-07-06T01:36:18.278Z,4.67
2018-07-06T01:38:51.138Z,2.20
2018-07-06T01:41:24.210Z,2.50
2018-07-06T01:43:57.117Z,2.47
2018-07-06T01:46:30.030Z,2.40
2018-07-06T01:49:02.886Z,2.10
2018-07-06T01:51:36.046Z,2.10
2018-07-06T01:54:09.111Z,3.17
2018-07-06T01:56:41.987Z,2.67
2018-07-06T01:59:15.038Z,2.57
2018-07-06T02:01:47.948Z,2.50
2018-07-06T02:04:20.817Z,3.03
2018-07-06T02:06:53.867Z,4.43
2018-07-06T02:09:26.754Z,2.57
2018-07-06T02:11:59.698Z,5.63
2018-07-06T02:14:32.754Z,6.33
2018-07-06T02:17:05.689Z,2.73
2018-07-06T02:19:38.574Z,3.87
2018-07-06T02:22:11.477Z,9.20
2018-07-06T02:24:44.360Z,3.30
2018-07-06T02:27:17.599Z,2.53
2018-07-06T02:29:50.633Z,9.20
2018-07-06T02:32:23.660Z,2.40
2018-07-06T02:34:56.625Z,2.70
2018-07-06T02:37:29.494Z,2.20
2018-07-06T02:40:02.357Z,2.47
2018-07-06T02:42:35.374Z,2.30
2018-07-06T02:45:08.214Z,2.20
2018-07-06T02:47:41.142Z,2.97
2018-07-06T02:50:14.004Z,2.33
2018-07-06T02:52:46.910Z,2.53
2018-07-06T02:55:19.733Z,2.40
2018-07-06T02:57:52.675Z,3.93
2018-07-06T03:00:25.546Z,5.13
2018-07-06T03:02:58.457Z,2.30
2018-07-06T03:05:31.250Z,2.90
2018-07-06T03:08:04.087Z,3.20
2018-07-06T03:10:36.988Z,4.23
2018-07-06T03:13:10.074Z,3.03
2018-07-06T03:15:43.169Z,2.53
2018-07-06T03:18:16.042Z,2.90
2018-07-06T03:20:48.893Z,2.87
2018-07-06T03:23:21.835Z,3.97
2018-07-06T03:25:54.745Z,2.23
2018-07-06T03:28:27.783Z,2.30
2018-07-06T03:31:00.809Z,2.30
2018-07-06T03:33:33.709Z,2.60
2018-07-06T03:36:06.678Z,7.50
2018-07-06T03:38:39.770Z,3.60
2018-07-06T03:41:12.661Z,2.73
2018-07-06T03:43:45.491Z,2.20
2018-07-06T03:46:18.426Z,2.70
2018-07-06T03:48:51.319Z,2.53
2018-07-06T03:51:24.362Z,3.50
2018-07-06T03:53:57.286Z,2.20
2018-07-06T03:56:30.200Z,3.33
2018-07-06T03:59:03.084Z,2.40
2018-07-06T04:01:36.005Z,2.40
2018-07-06T04:04:08.958Z,3.47
2018-07-06T04:06:41.970Z,2.20
2018-07-06T04:09:14.851Z,2.53
2018-07-06T04:11:47.907Z,2.43
2018-07-06T04:14:20.771Z,2.87
2018-07-06T04:16:53.687Z,2.67
2018-07-06T04:19:26.521Z,5.23
2018-07-06T04:21:59.366Z,2.40
2018-07-06T04:24:32.241Z,2.40
2018-07-06T04:27:05.145Z,2.67
2018-07-06T04:29:37.973Z,6.03
2018-07-06T04:32:10.780Z,2.63
2018-07-06T04:34:43.840Z,2.87
2018-07-06T04:37:16.629Z,3.00
2018-07-06T04:39:49.682Z,3.10
2018-07-06T04:42:22.701Z,3.60
2018-07-06T04:44:55.702Z,3.73
2018-07-06T04:47:28.595Z,3.10
2018-07-06T04:50:01.521Z,3.47
2018-07-06T04:52:34.510Z,3.00
2018-07-06T04:55:07.523Z,3.83
2018-07-06T04:57:40.401Z,2.83
2018-07-06T05:00:13.463Z,4.23
2018-07-06T05:02:46.369Z,5.00
2018-07-06T05:05:19.216Z,3.70
2018-07-06T05:07:52.323Z,3.50
2018-07-06T05:10:25.334Z,6.20
2018-07-06T05:12:58.216Z,3.80
2018-07-06T05:15:31.093Z,3.13
2018-07-06T05:18:03.991Z,2.83
2018-07-06T05:20:36.865Z,4.97
2018-07-06T05:23:09.756Z,5.13
2018-07-06T05:25:42.726Z,3.40
2018-07-06T05:28:15.545Z,3.10
2018-07-06T05:30:48.594Z,5.03
2018-07-06T05:33:21.779Z,2.77
2018-07-06T05:35:54.769Z,2.93
2018-07-06T05:38:27.950Z,2.90
2018-07-06T05:41:00.866Z,3.10
2018-07-06T05:43:33.776Z,2.87
2018-07-06T05:46:06.977Z,3.00
2018-07-06T05:48:40.003Z,2.60
2018-07-06T05:51:13.165Z,2.40
2018-07-06T05:53:46.052Z,5.83
2018-07-06T05:56:19.232Z,4.93
2018-07-06T05:58:52.169Z,4.63
2018-07-06T06:01:25.094Z,4.13
2018-07-06T06:03:58.121Z,3.10
2018-07-06T06:06:30.958Z,8.33
2018-07-06T06:08:57.713Z,3.37
2018-07-06T06:11:24.953Z,3.53
2018-07-06T06:13:52.191Z,4.73
2018-07-06T06:16:19.488Z,3.30
2018-07-06T06:18:46.751Z,7.10
2018-07-06T06:21:14.176Z,2.63
2018-07-06T06:23:41.440Z,4.20
2018-07-06T06:26:08.697Z,2.53
2018-07-06T06:28:36.427Z,2.73
2018-07-06T06:31:03.796Z,3.10
2018-07-06T06:33:31.122Z,4.07
2018-07-06T06:35:58.592Z,3.23
2018-07-06T06:38:25.842Z,3.93
2018-07-06T06:40:53.138Z,5.07
2018-07-06T06:43:20.393Z,3.07
2018-07-06T06:45:47.629Z,6.57
2018-07-06T06:48:14.889Z,5.63
2018-07-06T06:50:42.156Z,3.67
2018-07-06T06:53:09.682Z,5.57
2018-07-06T06:55:37.063Z,3.30
2018-07-06T06:58:04.307Z,6.00
2018-07-06T07:00:31.570Z,3.20
2018-07-06T07:02:58.877Z,2.90
2018-07-06T07:05:26.106Z,5.70
2018-07-06T07:07:53.591Z,3.03
2018-07-06T07:10:20.854Z,2.37
2018-07-06T07:12:48.137Z,2.80
2018-07-06T07:15:15.370Z,2.80
2018-07-06T07:17:42.644Z,2.87
2018-07-06T07:20:10.017Z,2.80
2018-07-06T07:22:37.254Z,2.47
2018-07-06T07:25:04.500Z,4.63
2018-07-06T07:27:31.746Z,2.37
2018-07-06T07:29:59.523Z,2.97
2018-07-06T07:32:26.926Z,7.20
2018-07-06T07:34:54.182Z,2.50
2018-07-06T07:37:21.431Z,3.00
2018-07-06T07:39:48.703Z,2.87
2018-07-06T07:42:15.977Z,2.90
2018-07-06T07:44:43.263Z,3.40
2018-07-06T07:47:10.521Z,4.50
2018-07-06T07:49:37.779Z,2.60
2018-07-06T07:52:11.996Z,2.53
2018-07-06T07:54:50.284Z,2.90
2018-07-06T07:57:18.179Z,2.53
2018-07-06T07:59:45.473Z,2.60
2018-07-06T08:02:13.697Z,2.07
2018-07-06T08:04:41.387Z,2.03
2018-07-06T08:07:08.639Z,1.77
2018-07-06T08:09:36.001Z,2.20
2018-07-06T08:12:03.717Z,2.10
2018-07-06T08:14:31.037Z,2.10
2018-07-06T08:16:58.486Z,2.13
2018-07-06T08:19:25.810Z,2.10
2018-07-06T08:21:53.089Z,2.17
2018-07-06T08:24:20.810Z,3.70
2018-07-06T08:26:48.401Z,4.87
2018-07-06T08:29:15.638Z,2.17
2018-07-06T08:31:44.076Z,2.63
2018-07-06T08:34:17.310Z,2.00
2018-07-06T08:37:15.417Z,2.00
2018-07-06T08:39:42.715Z,2.70
2018-07-06T08:42:10.169Z,2.13
2018-07-06T08:44:37.468Z,1.50
2018-07-06T08:47:05.845Z,1.90
2018-07-06T08:49:33.110Z,2.27
2018-07-06T08:52:00.385Z,2.00
2018-07-06T08:54:27.631Z,2.10
2018-07-06T08:56:54.886Z,4.73
2018-07-06T08:59:22.129Z,3.30
2018-07-06T09:01:49.417Z,2.37
2018-07-06T09:04:17.521Z,1.83
2018-07-06T09:06:45.562Z,2.40
2018-07-06T09:09:12.815Z,2.43
2018-07-06T09:11:40.174Z,3.10
2018-07-06T09:14:07.583Z,2.60
2018-07-06T09:16:34.839Z,2.77
2018-07-06T09:19:02.074Z,4.10
2018-07-06T09:21:29.329Z,2.37
2018-07-06T09:23:56.593Z,2.60
2018-07-06T09:26:23.905Z,2.80
2018-07-06T09:28:51.307Z,2.70
2018-07-06T09:31:18.576Z,3.00
2018-07-06T09:33:45.823Z,3.87
2018-07-06T09:36:13.057Z,3.73
2018-07-06T09:38:40.311Z,4.27
2018-07-06T09:41:07.585Z,3.83
2018-07-06T09:43:34.825Z,4.33
2018-07-06T09:46:02.094Z,4.30
2018-07-06T09:48:29.352Z,4.87
2018-07-06T09:50:56.661Z,4.70
2018-07-06T09:53:24.057Z,5.17
2018-07-06T09:55:51.317Z,7.03
2018-07-06T09:58:18.577Z,6.03
2018-07-06T10:00:51.454Z,6.10
2018-07-06T10:03:18.718Z,6.70
2018-07-06T10:05:46.028Z,7.27
2018-07-06T10:08:13.453Z,8.40
2018-07-06T10:10:40.709Z,7.40
2018-07-06T10:13:07.979Z,7.63
2018-07-06T10:15:35.221Z,8.27
2018-07-06T10:18:02.466Z,8.30
2018-07-06T10:20:29.739Z,10.00
2018-07-06T10:22:57.041Z,9.33
2018-07-06T10:25:24.286Z,9.70
2018-07-06T10:27:55.517Z,10.80
2018-07-06T10:30:33.168Z,11.77
2018-07-06T10:33:00.478Z,10.90
2018-07-06T10:35:28.524Z,14.87
2018-07-06T10:37:55.778Z,10.40
2018-07-06T10:40:23.027Z,11.17
2018-07-06T10:42:50.292Z,12.90
2018-07-06T10:45:17.644Z,12.00
2018-07-06T10:47:45.879Z,13.30
2018-07-06T10:50:13.142Z,14.47
2018-07-06T10:52:40.407Z,13.43
2018-07-06T10:55:07.683Z,12.63
2018-07-06T10:57:35.525Z,14.13
2018-07-06T11:00:02.860Z,12.70
2018-07-06T11:02:30.163Z,12.43
2018-07-06T11:04:57.416Z,14.47
2018-07-06T11:07:24.879Z,14.33
2018-07-06T11:09:52.117Z,13.37
2018-07-06T11:12:19.463Z,15.30
2018-07-06T11:14:46.739Z,14.17
2018-07-06T11:17:14.010Z,13.70
2018-07-06T11:19:41.293Z,15.80
2018-07-06T11:22:08.559Z,13.80
2018-07-06T11:24:35.811Z,14.03
2018-07-06T11:27:03.122Z,14.33
2018-07-06T11:29:30.405Z,13.70
2018-07-06T11:31:57.678Z,16.40
2018-07-06T11:34:25.162Z,13.60
2018-07-06T11:36:52.420Z,13.63
2018-07-06T11:39:21.225Z,16.83
2018-07-06T11:41:48.707Z,15.00
2018-07-06T11:44:17.932Z,15.43
2018-07-06T11:46:45.858Z,14.13
2018-07-06T11:49:13.627Z,13.73
2018-07-06T11:51:41.173Z,13.87
2018-07-06T11:54:08.495Z,13.57
2018-07-06T11:56:35.778Z,12.37
2018-07-06T11:59:03.850Z,12.13
2018-07-06T12:01:31.157Z,12.37
2018-07-06T12:03:58.446Z,12.37
2018-07-06T12:06:25.901Z,9.70
2018-07-06T12:08:53.166Z,8.50
2018-07-06T12:11:20.419Z,10.00
2018-07-06T12:13:47.702Z,9.13
2018-07-06T12:16:15.121Z,8.67
2018-07-06T12:18:42.414Z,10.00
2018-07-06T12:21:09.909Z,9.23
2018-07-06T12:23:37.402Z,9.97
2018-07-06T12:26:04.667Z,9.40
2018-07-06T12:28:31.952Z,10.43
2018-07-06T12:30:59.198Z,11.03
2018-07-06T12:33:26.454Z,10.77
2018-07-06T12:35:53.808Z,10.20
2018-07-06T12:38:21.049Z,9.17
2018-07-06T12:40:48.373Z,11.67
2018-07-06T12:43:15.637Z,9.87
2018-07-06T12:45:42.990Z,10.63
2018-07-06T12:48:10.364Z,9.90
2018-07-06T12:50:37.811Z,11.70
2018-07-06T12:53:05.144Z,10.30
2018-07-06T12:55:32.806Z,16.00
2018-07-06T12:58:00.071Z,11.67
2018-07-06T13:00:27.337Z,12.67
2018-07-06T13:02:54.612Z,11.53
2018-07-06T13:05:21.882Z,11.10
2018-07-06T13:07:49.198Z,11.63
2018-07-06T13:10:16.474Z,10.07
2018-07-06T13:12:43.747Z,10.90
2018-07-06T13:15:10.969Z,11.00
2018-07-06T13:17:38.255Z,11.80
2018-07-06T13:20:05.559Z,10.40
2018-07-06T13:22:33.023Z,10.67
2018-07-06T13:25:00.301Z,10.50
2018-07-06T13:27:27.545Z,10.87
2018-07-06T13:29:54.826Z,10.67
2018-07-06T13:32:22.359Z,9.83
2018-07-06T13:34:49.613Z,16.00
2018-07-06T13:37:16.900Z,10.03
2018-07-06T13:39:44.362Z,10.70
2018-07-06T13:42:11.619Z,11.70
2018-07-06T13:44:38.864Z,9.77
2018-07-06T13:47:06.333Z,16.23
2018-07-06T13:49:33.580Z,10.70
2018-07-06T13:52:00.834Z,10.10
2018-07-06T13:54:28.095Z,20.13
2018-07-06T13:56:55.325Z,10.23
2018-07-06T13:59:22.776Z,12.57
2018-07-06T14:01:50.207Z,13.00
2018-07-06T14:04:17.477Z,9.80
2018-07-06T14:06:44.772Z,9.40
2018-07-06T14:09:12.005Z,9.70
2018-07-06T14:11:39.254Z,10.07
2018-07-06T14:14:06.513Z,10.30
2018-07-06T14:16:33.785Z,11.40
2018-07-06T14:19:01.050Z,9.03
2018-07-06T14:21:28.297Z,11.37
2018-07-06T14:23:55.585Z,12.00
2018-07-06T14:26:23.084Z,10.50
2018-07-06T14:28:50.433Z,11.73
2018-07-06T14:31:17.765Z,14.00
2018-07-06T14:33:45.453Z,11.13
2018-07-06T14:36:13.014Z,10.80
2018-07-06T14:38:40.308Z,10.93
2018-07-06T14:41:07.598Z,10.70
2018-07-06T14:43:35.566Z,10.17
2018-07-06T14:46:02.886Z,9.87
2018-07-06T14:48:30.207Z,10.20
2018-07-06T14:50:57.497Z,9.60
2018-07-06T14:53:24.812Z,10.23
2018-07-06T14:55:52.100Z,10.73
2018-07-06T14:58:19.378Z,10.60
2018-07-06T15:00:46.676Z,11.33
2018-07-06T15:03:14.056Z,11.30
2018-07-06T15:05:41.298Z,9.70
2018-07-06T15:08:08.596Z,10.10
2018-07-06T15:10:36.029Z,16.10
2018-07-06T15:13:03.534Z,11.37
2018-07-06T15:15:31.134Z,9.17
2018-07-06T15:17:58.421Z,9.87
2018-07-06T15:20:25.780Z,10.40
2018-07-06T15:22:53.510Z,11.10
2018-07-06T15:25:20.820Z,13.80
2018-07-06T15:27:48.583Z,12.90
2018-07-06T15:30:15.884Z,11.33
2018-07-06T15:32:43.173Z,11.53
2018-07-06T15:35:10.466Z,10.70
2018-07-06T15:37:37.833Z,11.20
2018-07-06T15:40:05.106Z,9.33
2018-07-06T15:42:32.374Z,11.23
2018-07-06T15:44:59.629Z,10.80
2018-07-06T15:47:26.913Z,15.00
2018-07-06T15:49:54.303Z,11.80
2018-07-06T15:52:21.569Z,12.87
2018-07-06T15:54:48.911Z,13.97
2018-07-06T15:57:17.493Z,12.03
2018-07-06T15:59:44.921Z,11.43
2018-07-06T16:02:12.306Z,13.00
2018-07-06T16:04:40.053Z,14.23
2018-07-06T16:07:07.332Z,12.20
2018-07-06T16:09:34.611Z,9.90
2018-07-06T16:12:01.957Z,10.37
2018-07-06T16:14:29.234Z,12.40
2018-07-06T16:16:56.514Z,11.60
2018-07-06T16:19:23.929Z,11.10
2018-07-06T16:21:51.432Z,12.40
2018-07-06T16:24:18.871Z,15.00
2018-07-06T16:26:46.147Z,9.90
2018-07-06T16:29:13.471Z,7.90
2018-07-06T16:31:40.833Z,6.60
2018-07-06T16:34:08.098Z,5.90
2018-07-06T16:36:35.372Z,6.20
2018-07-06T16:39:02.815Z,5.87
2018-07-06T16:41:30.081Z,5.77
2018-07-06T16:43:57.549Z,4.77
2018-07-06T16:46:25.084Z,6.30
2018-07-06T16:48:52.362Z,4.33
2018-07-06T16:51:19.670Z,5.50
2018-07-06T16:53:46.977Z,4.57
2018-07-06T16:56:14.281Z,3.97
2018-07-06T16:58:41.616Z,4.10
2018-07-06T17:01:09.177Z,5.50
2018-07-06T17:03:36.638Z,5.03
2018-07-06T17:06:03.954Z,7.37
2018-07-06T17:08:31.287Z,11.57
2018-07-06T17:10:58.642Z,9.93
2018-07-06T17:13:26.076Z,7.17
2018-07-06T17:15:53.454Z,11.30
2018-07-06T17:18:20.725Z,7.40
2018-07-06T17:20:48.403Z,7.10
2018-07-06T17:23:15.670Z,9.77
2018-07-06T17:25:42.947Z,10.67
2018-07-06T17:28:10.225Z,11.20
2018-07-06T17:30:37.486Z,9.50
2018-07-06T17:33:04.761Z,9.63
2018-07-06T17:35:32.204Z,9.60
2018-07-06T17:37:59.685Z,8.57
2018-07-06T17:40:27.135Z,8.27
2018-07-06T17:42:54.562Z,9.60
2018-07-06T17:45:21.833Z,8.73
2018-07-06T17:47:49.192Z,7.53
2018-07-06T17:50:16.569Z,7.83
2018-07-06T17:52:43.976Z,8.00
2018-07-06T17:55:11.246Z,9.13
2018-07-06T17:57:38.521Z,8.17
2018-07-06T18:00:05.860Z,7.53
2018-07-06T18:02:33.211Z,8.53
2018-07-06T18:05:00.474Z,7.23
2018-07-06T18:07:27.779Z,7.00
2018-07-06T18:09:55.295Z,7.33
2018-07-06T18:12:22.739Z,7.30
2018-07-06T18:14:50.009Z,8.10
2018-07-06T18:17:17.357Z,8.30
2018-07-06T18:19:44.918Z,7.90
2018-07-06T18:22:12.324Z,6.97
2018-07-06T18:24:39.696Z,6.80
2018-07-06T18:27:07.001Z,7.80
2018-07-06T18:29:34.300Z,7.00
2018-07-06T18:32:01.757Z,6.70
2018-07-06T18:34:29.063Z,6.80
2018-07-06T18:36:56.388Z,7.70
2018-07-06T18:39:23.640Z,7.50
2018-07-06T18:41:51.378Z,7.37
2018-07-06T18:44:18.696Z,9.23
2018-07-06T18:46:45.987Z,8.57
2018-07-06T18:49:13.250Z,5.97
2018-07-06T18:51:40.516Z,6.63
2018-07-06T18:54:07.807Z,6.67
2018-07-06T18:56:35.080Z,6.47
2018-07-06T18:59:02.374Z,5.87
2018-07-06T19:01:31.605Z,7.20
2018-07-06T19:03:58.896Z,7.23
2018-07-06T19:06:26.269Z,7.00
2018-07-06T19:08:57.887Z,8.47
2018-07-06T19:11:25.176Z,5.63
2018-07-06T19:13:52.542Z,5.43
2018-07-06T19:16:19.965Z,7.60
2018-07-06T19:18:47.428Z,7.13
2018-07-06T19:21:14.782Z,5.47
2018-07-06T19:23:42.341Z,5.10
2018-07-06T19:26:09.684Z,5.00
2018-07-06T19:28:38.207Z,6.00
2018-07-06T19:31:08.847Z,8.03
2018-07-06T19:33:36.219Z,5.63
2018-07-06T19:36:03.662Z,5.47
2018-07-06T19:38:30.996Z,10.23
2018-07-06T19:40:58.355Z,5.40
2018-07-06T19:43:25.651Z,4.87
2018-07-06T19:45:52.931Z,5.87
2018-07-06T19:48:20.228Z,5.80
2018-07-06T19:50:47.490Z,5.83
2018-07-06T19:53:14.825Z,4.40
2018-07-06T19:55:42.109Z,7.50
2018-07-06T19:58:09.373Z,4.73
2018-07-06T20:00:36.702Z,4.90
2018-07-06T20:03:04.039Z,5.13
2018-07-06T20:05:31.353Z,4.00
2018-07-06T20:07:58.734Z,7.00
2018-07-06T20:10:26.201Z,4.90
2018-07-06T20:12:53.782Z,7.53
2018-07-06T20:15:21.154Z,6.77
2018-07-06T20:17:48.463Z,5.47
2018-07-06T20:20:15.742Z,7.47
2018-07-06T20:22:43.066Z,5.33
2018-07-06T20:25:10.389Z,4.47
2018-07-06T20:27:37.654Z,6.73
2018-07-06T20:30:05.247Z,4.70
2018-07-06T20:32:32.625Z,4.23
2018-07-06T20:35:00.075Z,4.83
2018-07-06T20:37:27.393Z,8.40
2018-07-06T20:39:54.710Z,5.20
2018-07-06T20:42:22.081Z,4.50
2018-07-06T20:44:49.521Z,7.27
2018-07-06T20:47:16.878Z,5.00
2018-07-06T20:49:44.143Z,4.20
2018-07-06T20:52:11.416Z,4.10
2018-07-06T20:54:38.740Z,5.10
2018-07-06T20:57:06.119Z,4.23
2018-07-06T20:59:33.480Z,4.30
2018-07-06T21:02:00.836Z,4.50
2018-07-06T21:04:28.259Z,5.30
2018-07-06T21:06:55.622Z,3.80
2018-07-06T21:09:22.986Z,4.13
2018-07-06T21:11:50.476Z,4.00
2018-07-06T21:14:17.785Z,4.87
2018-07-06T21:16:45.061Z,7.70
2018-07-06T21:19:12.495Z,5.87
2018-07-06T21:21:39.777Z,5.43
2018-07-06T21:24:07.115Z,6.20
2018-07-06T21:26:34.390Z,8.10
2018-07-06T21:29:01.674Z,8.33
2018-07-06T21:31:28.932Z,8.57
2018-07-06T21:33:56.204Z,8.87
2018-07-06T21:36:23.454Z,6.73
2018-07-06T21:38:50.745Z,7.33
2018-07-06T21:41:18.050Z,9.17
2018-07-06T21:43:45.336Z,10.30
2018-07-06T21:46:12.708Z,7.53
2018-07-06T21:48:40.004Z,7.63
2018-07-06T21:51:07.543Z,8.57
2018-07-06T21:53:34.849Z,7.17
2018-07-06T21:56:02.114Z,7.00
2018-07-06T21:58:29.395Z,6.67
2018-07-06T22:00:56.744Z,8.10
2018-07-06T22:03:24.006Z,8.57
2018-07-06T22:05:51.286Z,6.80
2018-07-06T22:08:18.539Z,8.23
2018-07-06T22:10:46.105Z,7.43
2018-07-06T22:13:13.374Z,7.37
2018-07-06T22:15:43.970Z,7.50
2018-07-06T22:18:11.930Z,6.97
2018-07-06T22:20:39.274Z,7.10
2018-07-06T22:23:06.582Z,7.93
2018-07-06T22:25:33.898Z,7.40
2018-07-06T22:28:01.207Z,7.60
2018-07-06T22:30:28.495Z,6.53
2018-07-06T22:32:55.734Z,8.80
2018-07-06T22:35:23.612Z,9.43
2018-07-06T22:37:50.869Z,7.57
2018-07-06T22:40:18.320Z,7.87
2018-07-06T22:42:45.565Z,7.00
2018-07-06T22:45:13.578Z,6.63
2018-07-06T22:47:40.887Z,6.97
2018-07-06T22:50:08.142Z,6.60
2018-07-06T22:52:35.397Z,6.93
2018-07-06T22:55:02.713Z,10.47
2018-07-06T22:57:29.993Z,7.73
2018-07-06T22:59:57.500Z,6.60
2018-07-06T23:02:24.837Z,7.10
2018-07-06T23:04:52.097Z,6.97
2018-07-06T23:07:19.366Z,6.33
2018-07-06T23:09:46.634Z,7.23
2018-07-06T23:12:13.894Z,9.20
2018-07-06T23:14:41.205Z,6.63
2018-07-06T23:17:08.560Z,7.20
2018-07-06T23:19:35.841Z,5.67
2018-07-06T23:22:03.087Z,5.60
2018-07-06T23:24:30.473Z,5.57
2018-07-06T23:26:57.774Z,5.47
2018-07-06T23:29:25.053Z,6.00
2018-07-06T23:31:52.528Z,5.50
2018-07-06T23:34:19.777Z,6.60
2018-07-06T23:36:47.018Z,5.87
2018-07-06T23:39:14.298Z,6.93
2018-07-06T23:41:41.555Z,5.40
2018-07-06T23:44:08.831Z,4.93
2018-07-06T23:46:36.081Z,5.00
2018-07-06T23:49:03.393Z,5.10
2018-07-06T23:51:30.767Z,6.60
2018-07-06T23:53:58.078Z,4.87
2018-07-06T23:56:25.354Z,4.83
2018-07-06T23:58:52.652Z,4.53
